createdAt,value
2023-04-15T00:02:41.214Z,8.98
2023-04-15T00:07:43.342Z,7.53
2023-04-15T00:12:45.326Z,9.05
2023-04-15T00:17:47.350Z,9.90
2023-04-15T00:27:51.044Z,10.13
2023-04-15T00:32:53.008Z,8.55
2023-04-15T00:37:55.138Z,10.10
2023-04-15T00:47:59.513Z,13.65
2023-04-15T00:53:01.500Z,10.57
2023-04-15T00:58:03.540Z,10.52
2023-04-15T01:03:05.605Z,10.45
2023-04-15T01:13:09.687Z,8.52
2023-04-15T01:18:11.672Z,8.35
2023-04-15T01:23:13.978Z,9.75
2023-04-15T01:28:16.725Z,8.68
2023-04-15T01:33:18.825Z,11.05
2023-04-15T01:38:20.887Z,8.73
2023-04-15T01:48:24.769Z,9.98
2023-04-15T01:53:26.701Z,9.70
2023-04-15T01:58:28.674Z,9.15
2023-04-15T02:08:32.766Z,5.85
2023-04-15T02:13:34.797Z,10.48
2023-04-15T02:23:38.969Z,10.40
2023-04-15T02:28:40.972Z,9.98
2023-04-15T02:38:44.802Z,8.18
2023-04-15T02:48:48.750Z,9.15
2023-04-15T02:53:51.219Z,10.63
2023-04-15T02:58:56.516Z,12.40
2023-04-15T03:03:58.673Z,8.65
2023-04-15T03:09:01.314Z,7.97
2023-04-15T03:14:03.499Z,10.88
2023-04-15T03:19:05.495Z,9.90
2023-04-15T03:29:09.373Z,11.38
2023-04-15T03:39:13.480Z,10.90
2023-04-15T03:49:17.463Z,12.77
2023-04-15T03:54:19.488Z,9.85
2023-04-15T03:59:21.790Z,6.22
2023-04-15T04:04:24.328Z,12.45
2023-04-15T04:09:26.401Z,11.77
2023-04-15T04:14:30.133Z,11.38
2023-04-15T04:19:32.069Z,10.40
2023-04-15T04:24:34.174Z,8.90
2023-04-15T04:34:38.324Z,12.00
2023-04-15T04:39:40.658Z,10.68
2023-04-15T04:44:42.971Z,9.70
2023-04-15T04:49:45.565Z,12.40
2023-04-15T04:54:48.098Z,11.55
2023-04-15T04:59:50.285Z,12.13
2023-04-15T05:04:54.644Z,12.75
2023-04-15T05:09:57.024Z,9.95
2023-04-15T05:14:59.061Z,9.90
2023-04-15T05:20:02.644Z,9.73
2023-04-15T05:25:05.185Z,10.50
2023-04-15T05:30:07.751Z,12.73
2023-04-15T05:35:09.955Z,7.53
2023-04-15T05:40:12.244Z,11.45
2023-04-15T05:45:14.224Z,10.40
2023-04-15T05:50:16.421Z,9.27
2023-04-15T05:55:19.785Z,10.85
2023-04-15T06:00:22.601Z,9.07
2023-04-15T06:05:24.963Z,10.18
2023-04-15T06:10:27.091Z,12.18
2023-04-15T06:15:29.141Z,11.65
2023-04-15T06:25:34.625Z,11.00
2023-04-15T06:30:39.389Z,12.60
2023-04-15T06:35:43.264Z,12.23
2023-04-15T06:40:46.671Z,7.40
2023-04-15T06:45:49.235Z,10.57
2023-04-15T06:50:52.751Z,9.02
2023-04-15T06:55:54.956Z,10.13
2023-04-15T07:00:59.026Z,9.27
2023-04-15T07:06:02.079Z,9.20
2023-04-15T07:11:04.154Z,12.60
2023-04-15T07:21:08.087Z,10.85
2023-04-15T07:31:12.579Z,11.30
2023-04-15T07:36:15.904Z,9.27
2023-04-15T07:41:18.121Z,7.15
2023-04-15T07:46:32.915Z,9.82
2023-04-15T07:51:37.650Z,10.00
2023-04-15T07:56:40.581Z,8.35
2023-04-15T08:01:45.516Z,11.05
2023-04-15T08:06:54.026Z,12.70
2023-04-15T08:11:57.950Z,12.30
2023-04-15T08:17:02.819Z,7.22
2023-04-15T08:22:05.599Z,7.10
2023-04-15T08:27:18.386Z,9.43
2023-04-15T08:32:21.044Z,10.50
2023-04-15T08:37:23.485Z,9.82
2023-04-15T08:42:33.119Z,6.55
2023-04-15T08:47:41.895Z,7.75
2023-04-15T08:52:46.477Z,6.70
2023-04-15T08:57:51.087Z,8.95
2023-04-15T09:02:54.873Z,8.50
2023-04-15T09:07:57.058Z,7.90
2023-04-15T09:18:01.678Z,8.05
2023-04-15T09:23:13.733Z,9.02
2023-04-15T09:28:24.086Z,7.07
2023-04-15T09:33:27.545Z,7.63
2023-04-15T09:38:29.832Z,6.20
2023-04-15T09:43:42.879Z,6.90
2023-04-15T09:48:45.133Z,6.85
2023-04-15T09:53:47.195Z,6.20
2023-04-15T10:04:10.694Z,5.75
2023-04-15T10:09:19.123Z,6.88
2023-04-15T10:14:25.421Z,7.20
2023-04-15T10:19:29.985Z,5.25
2023-04-15T10:24:39.154Z,6.13
2023-04-15T10:29:44.911Z,8.68
2023-04-15T10:34:49.450Z,7.55
2023-04-15T10:40:23.173Z,7.32
2023-04-15T10:45:34.458Z,5.93
2023-04-15T10:50:40.386Z,5.20
2023-04-15T10:55:43.753Z,6.18
2023-04-15T11:00:53.476Z,5.20
2023-04-15T11:05:56.965Z,5.35
2023-04-15T11:11:07.752Z,6.03
2023-04-15T11:16:10.306Z,6.15
2023-04-15T11:21:14.958Z,3.78
2023-04-15T11:26:17.486Z,4.78
2023-04-15T11:31:20.477Z,4.03
2023-04-15T11:36:29.250Z,5.63
2023-04-15T11:41:31.472Z,4.30
2023-04-15T11:46:33.771Z,5.40
2023-04-15T11:51:38.509Z,5.47
2023-04-15T11:56:40.774Z,3.80
2023-04-15T12:01:47.457Z,4.30
2023-04-15T12:06:51.088Z,2.47
2023-04-15T12:11:54.140Z,4.38
2023-04-15T12:17:07.618Z,3.65
2023-04-15T12:22:13.639Z,5.07
2023-04-15T12:27:17.986Z,3.05
2023-04-15T12:32:21.411Z,3.83
2023-04-15T12:37:23.798Z,4.20
2023-04-15T12:42:25.955Z,3.38
2023-04-15T12:47:34.533Z,4.57
2023-04-15T12:52:36.637Z,3.30
2023-04-15T12:57:46.721Z,4.88
2023-04-15T13:02:55.939Z,5.88
2023-04-15T13:08:00.132Z,4.03
2023-04-15T13:13:02.507Z,4.28
2023-04-15T13:18:07.419Z,4.75
2023-04-15T13:23:10.190Z,3.53
2023-04-15T13:28:12.520Z,5.97
2023-04-15T13:33:14.771Z,3.33
2023-04-15T13:38:17.033Z,3.10
2023-04-15T13:43:19.296Z,4.45
2023-04-15T13:48:21.586Z,4.13
2023-04-15T13:53:37.710Z,4.65
2023-04-15T13:58:41.813Z,4.05
2023-04-15T14:03:44.168Z,4.80
2023-04-15T14:08:46.998Z,5.78
2023-04-15T14:13:49.126Z,5.90
2023-04-15T14:18:51.251Z,5.63
2023-04-15T14:23:53.318Z,12.00
2023-04-15T14:28:55.587Z,8.60
2023-04-15T14:33:58.026Z,6.88
2023-04-15T14:39:00.503Z,12.32
2023-04-15T14:44:03.245Z,10.65
2023-04-15T14:49:05.843Z,11.68
2023-04-15T14:54:08.227Z,7.47
2023-04-15T14:59:10.438Z,6.97
2023-04-15T15:04:14.078Z,6.53
2023-04-15T15:09:16.610Z,5.53
2023-04-15T15:14:18.799Z,7.50
2023-04-15T15:19:21.048Z,8.85
2023-04-15T15:24:23.545Z,9.13
2023-04-15T15:29:25.859Z,9.27
2023-04-15T15:34:28.440Z,17.80
2023-04-15T15:39:37.336Z,17.50
2023-04-15T15:44:52.036Z,13.02
2023-04-15T15:50:06.497Z,12.60
2023-04-15T15:55:12.824Z,11.20
2023-04-15T16:00:19.941Z,12.80
2023-04-15T16:05:31.354Z,11.88
2023-04-15T16:10:54.275Z,13.20
2023-04-15T16:16:07.456Z,13.30
2023-04-15T16:21:10.656Z,10.57
2023-04-15T16:32:35.723Z,9.32
2023-04-15T16:37:42.709Z,7.65
2023-04-15T16:54:08.870Z,6.95
2023-04-15T16:59:19.282Z,7.72
2023-04-15T17:04:49.399Z,8.35
2023-04-15T17:09:53.308Z,7.65
2023-04-15T17:14:57.443Z,7.63
2023-04-15T17:20:00.318Z,8.30
2023-04-15T17:25:03.374Z,7.53
2023-04-15T17:30:07.991Z,6.57
2023-04-15T17:35:11.246Z,7.72
2023-04-15T17:40:16.090Z,8.02
2023-04-15T17:45:19.490Z,8.38
2023-04-15T17:50:26.249Z,6.75
2023-04-15T17:55:36.521Z,6.07
2023-04-15T18:00:44.069Z,8.32
2023-04-15T18:05:52.737Z,7.70
2023-04-15T18:16:29.963Z,6.65
2023-04-15T18:21:42.268Z,7.43
2023-04-15T18:26:49.314Z,6.38
2023-04-15T18:31:58.418Z,5.93
2023-04-15T18:37:20.614Z,6.43
2023-04-15T18:42:26.779Z,4.60
2023-04-15T18:47:35.179Z,6.20
2023-04-15T18:52:44.324Z,6.97
2023-04-15T18:57:49.004Z,6.38
2023-04-15T19:02:56.709Z,4.85
2023-04-15T19:08:01.857Z,6.20
2023-04-15T19:13:06.182Z,6.50
2023-04-15T19:18:15.353Z,5.03
2023-04-15T19:29:02.998Z,3.80
2023-04-15T19:34:06.917Z,5.70
2023-04-15T19:49:59.694Z,8.00
2023-04-15T19:55:02.270Z,5.80
2023-04-15T20:00:04.369Z,3.63
2023-04-15T20:05:10.083Z,5.07
2023-04-15T20:10:13.238Z,6.68
2023-04-15T20:15:16.134Z,5.13
2023-04-15T20:20:18.078Z,6.43
2023-04-15T20:25:19.963Z,4.68
2023-04-15T20:30:22.031Z,4.63
2023-04-15T20:35:25.199Z,4.13
2023-04-15T20:40:27.220Z,4.65
2023-04-15T20:45:29.092Z,6.18
2023-04-15T20:50:30.941Z,6.68
2023-04-15T20:55:32.733Z,4.95
2023-04-15T21:00:34.870Z,2.88
2023-04-15T21:05:36.734Z,4.43
2023-04-15T21:10:40.291Z,6.05
2023-04-15T21:15:42.174Z,4.80
2023-04-15T21:20:44.029Z,7.00
2023-04-15T21:25:46.081Z,4.85
2023-04-15T21:35:50.345Z,5.70
2023-04-15T21:40:52.288Z,6.78
2023-04-15T21:46:23.469Z,5.80
2023-04-15T21:51:16.411Z,6.38
2023-04-15T22:01:19.968Z,6.07
2023-04-15T22:06:22.058Z,6.47
2023-04-15T22:11:27.942Z,7.20
2023-04-15T22:16:30.164Z,5.38
2023-04-15T22:21:32.196Z,5.57
2023-04-15T22:26:34.104Z,7.45
2023-04-15T22:31:35.979Z,7.55
2023-04-15T22:36:37.841Z,7.22
2023-04-15T22:41:39.688Z,5.65
2023-04-15T22:46:41.731Z,8.80
2023-04-15T22:51:43.898Z,5.32
2023-04-15T22:56:45.977Z,8.18
2023-04-15T23:01:47.963Z,7.90
2023-04-15T23:06:49.972Z,6.45
2023-04-15T23:11:51.931Z,7.85
2023-04-15T23:16:54.501Z,6.35
2023-04-15T23:21:56.364Z,5.72
2023-04-15T23:26:58.259Z,6.68
2023-04-15T23:32:00.260Z,6.00
2023-04-15T23:37:02.221Z,5.80
2023-04-15T23:42:04.284Z,6.70
2023-04-15T23:47:06.167Z,11.27
2023-04-15T23:52:08.262Z,5.22
2023-04-15T23:57:10.218Z,7.90
